Time;durP1;ratioP1;P1;durP2;ratioP2;P2;SDS_P1;SDS_P2;PMS_P1;PMS_P2;Temp;Humidity;BMP_temperature;BMP_pressure;BME280_temperature;BME280_humidity;BME280_pressure;Samples;Min_cycle;Max_cycle;Signal;HPM_P1;HPM_P2
2024/01/18 00:00:28;;;;;;;19.30;11.17;;;;;;;-0.74;99.44;97656.91;5073434;28;20204;-64
2024/01/18 00:02:57;;;;;;;18.37;10.97;;;;;;;-0.70;99.47;97657.72;5067044;28;20239;-58
2024/01/18 00:05:25;;;;;;;20.00;10.97;;;;;;;-0.70;99.22;97645.97;5068542;28;20206;-57
2024/01/18 00:07:53;;;;;;;18.47;11.70;;;;;;;-0.66;99.12;97649.28;5073689;28;20786;-58
2024/01/18 00:10:26;;;;;;;17.43;10.27;;;;;;;-0.65;98.67;97645.94;5073823;28;20619;-59
2024/01/18 00:12:55;;;;;;;19.17;10.30;;;;;;;-0.65;99.06;97631.59;5074704;28;20205;-61
2024/01/18 00:15:23;;;;;;;16.67;9.60;;;;;;;-0.62;98.88;97610.50;5072311;28;20233;-60
2024/01/18 00:17:51;;;;;;;16.80;10.57;;;;;;;-0.60;99.32;97607.09;5073179;28;20240;-58
2024/01/18 00:20:22;;;;;;;17.27;10.27;;;;;;;-0.57;98.93;97606.25;5072752;28;20213;-55
2024/01/18 00:22:50;;;;;;;14.80;9.80;;;;;;;-0.56;98.92;97611.28;5062264;28;20563;-57
2024/01/18 00:25:19;;;;;;;14.50;9.13;;;;;;;-0.52;99.11;97599.47;5070530;28;20211;-57
2024/01/18 00:27:47;;;;;;;18.73;10.13;;;;;;;-0.50;98.66;97602.84;5064674;28;20205;-56
2024/01/18 00:30:17;;;;;;;16.80;10.07;;;;;;;-0.50;98.93;97613.78;5072510;28;20254;-56
2024/01/18 00:32:45;;;;;;;14.70;9.80;;;;;;;-0.45;98.70;97617.97;5070198;28;20201;-56
2024/01/18 00:35:13;;;;;;;16.03;10.27;;;;;;;-0.42;99.04;97608.66;5068512;28;20653;-57
2024/01/18 00:37:42;;;;;;;15.93;9.73;;;;;;;-0.41;99.37;97604.44;5070773;28;20513;-57
2024/01/18 00:40:13;;;;;;;15.47;9.67;;;;;;;-0.39;98.71;97605.28;5072633;28;20224;-57
2024/01/18 00:42:41;;;;;;;14.13;9.27;;;;;;;-0.35;99.48;97609.47;5072821;28;20672;-59
2024/01/18 00:45:09;;;;;;;18.13;10.77;;;;;;;-0.34;98.46;97611.97;5070125;28;21277;-59
2024/01/18 00:47:37;;;;;;;14.10;10.23;;;;;;;-0.34;99.02;97617.03;5069182;28;20255;-56
2024/01/18 00:50:06;;;;;;;14.47;9.57;;;;;;;-0.33;99.06;97613.69;5072556;28;20316;-57
2024/01/18 00:52:34;;;;;;;15.07;9.83;;;;;;;-0.31;98.84;97617.03;5056201;28;20209;-57
2024/01/18 00:55:04;;;;;;;16.20;9.40;;;;;;;-0.30;98.61;97606.03;5071512;28;20543;-58
2024/01/18 00:57:33;;;;;;;15.40;10.10;;;;;;;-0.29;99.24;97597.63;5072059;28;20657;-59
2024/01/18 01:00:02;;;;;;;16.83;10.60;;;;;;;-0.25;98.91;97598.44;5070826;28;20220;-57
2024/01/18 01:02:30;;;;;;;14.77;10.13;;;;;;;-0.22;99.12;97603.47;5072315;28;20240;-58
2024/01/18 01:04:58;;;;;;;16.70;10.33;;;;;;;-0.17;99.20;97586.56;5071199;28;20206;-58
2024/01/18 01:07:26;;;;;;;15.83;10.70;;;;;;;-0.13;99.19;97590.72;5072517;28;20229;-58
2024/01/18 01:09:54;;;;;;;14.50;9.27;;;;;;;-0.11;99.12;97589.03;5070489;28;20683;-56
2024/01/18 01:12:23;;;;;;;14.47;9.87;;;;;;;-0.06;99.00;97586.47;5070574;28;20549;-58
2024/01/18 01:14:51;;;;;;;16.60;9.70;;;;;;;-0.05;99.29;97583.06;5071960;28;20255;-59
2024/01/18 01:17:19;;;;;;;16.60;10.33;;;;;;;-0.02;99.17;97598.22;5069428;28;20209;-61
2024/01/18 01:19:47;;;;;;;14.20;9.33;;;;;;;0.02;99.20;97597.34;5071673;28;20267;-59
2024/01/18 01:22:15;;;;;;;13.90;8.73;;;;;;;0.05;98.74;97588.91;5071725;28;20201;-57
2024/01/18 01:24:43;;;;;;;16.60;9.53;;;;;;;0.09;98.97;97590.53;5071590;28;20231;-58
2024/01/18 01:27:11;;;;;;;15.90;9.77;;;;;;;0.12;98.53;97593.06;5059492;28;20207;-56
2024/01/18 01:29:40;;;;;;;16.80;9.70;;;;;;;0.15;98.49;97590.50;5066907;28;20617;-58
2024/01/18 01:32:08;;;;;;;17.03;9.20;;;;;;;0.18;98.61;97586.22;5071608;28;20232;-57
2024/01/18 01:34:36;;;;;;;14.53;9.33;;;;;;;0.23;98.63;97586.19;5070511;28;20224;-58
2024/01/18 01:37:04;;;;;;;13.27;8.70;;;;;;;0.24;98.57;97581.09;5071352;28;20663;-58
2024/01/18 01:39:32;;;;;;;12.87;8.80;;;;;;;0.29;98.75;97586.09;5071616;28;20209;-57
2024/01/18 01:42:00;;;;;;;14.87;8.77;;;;;;;0.30;98.56;97580.22;5070531;28;20537;-56
2024/01/18 01:44:28;;;;;;;13.70;8.63;;;;;;;0.33;98.39;97575.13;5057787;28;20286;-58
2024/01/18 01:46:57;;;;;;;12.03;8.43;;;;;;;0.37;97.66;97575.91;5071222;28;20205;-58
2024/01/18 01:49:26;;;;;;;13.53;9.33;;;;;;;0.40;97.75;97574.16;5069949;28;20225;-58
2024/01/18 01:51:54;;;;;;;13.87;8.43;;;;;;;0.44;97.37;97573.31;5071571;28;20704;-56
2024/01/18 01:54:25;;;;;;;10.93;8.00;;;;;;;0.46;96.91;97569.03;5070917;28;20204;-57
2024/01/18 01:56:55;;;;;;;14.87;9.47;;;;;;;0.50;97.20;97566.47;5067074;28;20205;-58
2024/01/18 01:59:24;;;;;;;14.37;8.43;;;;;;;0.52;96.71;97554.66;5070667;28;20209;-56
2024/01/18 02:01:52;;;;;;;13.57;9.23;;;;;;;0.55;96.30;97565.56;5064737;28;20213;-58
2024/01/18 02:04:22;;;;;;;12.47;8.10;;;;;;;0.56;96.55;97562.19;5071515;28;20728;-58
2024/01/18 02:06:52;;;;;;;11.53;7.97;;;;;;;0.59;96.20;97564.69;5070268;28;20292;-58
2024/01/18 02:09:21;;;;;;;12.57;8.17;;;;;;;0.57;95.60;97556.25;5071091;28;20660;-57
2024/01/18 02:11:49;;;;;;;12.43;7.90;;;;;;;0.60;95.63;97558.75;5068795;28;20237;-57
2024/01/18 02:14:17;;;;;;;12.13;7.60;;;;;;;0.64;95.60;97560.41;5070893;28;20205;-60
2024/01/18 02:16:45;;;;;;;12.50;8.37;;;;;;;0.65;95.83;97546.03;5070075;28;20201;-56
2024/01/18 02:19:13;;;;;;;14.93;8.60;;;;;;;0.69;94.78;97545.13;5065548;28;20221;-57
2024/01/18 02:21:42;;;;;;;13.37;8.30;;;;;;;0.71;94.71;97551.03;5070783;28;20587;-57
2024/01/18 02:24:15;;;;;;;13.97;8.37;;;;;;;0.73;95.36;97551.84;5070355;28;20223;-56
2024/01/18 02:26:45;;;;;;;14.70;8.90;;;;;;;0.74;94.90;97535.78;5070014;28;20629;-56
2024/01/18 02:29:12;;;;;;;13.60;8.13;;;;;;;0.77;94.49;97542.50;5067267;28;20279;-56
2024/01/18 02:31:40;;;;;;;17.17;8.97;;;;;;;0.80;94.74;97540.75;5070255;28;20720;-57
2024/01/18 02:34:10;;;;;;;12.13;8.00;;;;;;;0.82;95.18;97540.75;5065293;28;20212;-57
2024/01/18 02:36:38;;;;;;;13.23;8.50;;;;;;;0.82;95.07;97543.28;5067385;28;20197;-56
2024/01/18 02:39:06;;;;;;;13.43;8.00;;;;;;;0.83;94.93;97539.91;5070291;28;20310;-57
2024/01/18 02:41:34;;;;;;;12.60;8.70;;;;;;;0.85;95.13;97546.63;5068691;28;20255;-58
2024/01/18 02:44:04;;;;;;;14.10;8.33;;;;;;;0.86;95.09;97539.84;5070057;28;20299;-57
2024/01/18 02:46:32;;;;;;;11.73;7.80;;;;;;;0.88;94.34;97538.97;5069849;28;20204;-57
2024/01/18 02:49:00;;;;;;;12.43;8.47;;;;;;;0.89;95.08;97537.28;5070349;28;20209;-56
2024/01/18 02:51:28;;;;;;;14.77;8.87;;;;;;;0.90;94.74;97541.50;5064574;28;21074;-57
2024/01/18 02:53:56;;;;;;;14.53;8.63;;;;;;;0.91;94.42;97546.53;5063451;28;20317;-58
2024/01/18 02:56:24;;;;;;;14.63;8.97;;;;;;;0.93;94.56;97538.91;5072205;28;20670;-56
2024/01/18 02:58:52;;;;;;;11.47;8.67;;;;;;;0.94;94.28;97538.06;5070990;28;20201;-58
2024/01/18 03:01:21;;;;;;;11.97;7.93;;;;;;;0.94;95.15;97546.50;5069506;28;20224;-59
2024/01/18 03:03:49;;;;;;;14.87;8.47;;;;;;;0.92;94.45;97539.75;5070904;28;20201;-57
2024/01/18 03:06:17;;;;;;;16.13;9.37;;;;;;;0.91;94.95;97541.47;5068118;28;20223;-57
2024/01/18 03:08:45;;;;;;;14.27;8.97;;;;;;;0.91;95.21;97544.00;5064180;28;20201;-56
2024/01/18 03:11:13;;;;;;;12.87;8.80;;;;;;;0.89;94.60;97549.97;5064578;28;21083;-56
2024/01/18 03:13:41;;;;;;;14.60;9.07;;;;;;;0.90;95.64;97561.78;5070102;28;20207;-55
2024/01/18 03:16:09;;;;;;;13.33;9.20;;;;;;;0.88;95.28;97551.63;5070159;28;20288;-58
2024/01/18 03:18:38;;;;;;;14.87;8.83;;;;;;;0.88;94.91;97554.16;5068399;28;20644;-57
2024/01/18 03:21:07;;;;;;;14.37;9.57;;;;;;;0.86;95.85;97540.69;5070297;28;20750;-59
2024/01/18 03:23:35;;;;;;;14.23;9.27;;;;;;;0.89;95.93;97548.25;5065803;28;20572;-57
2024/01/18 03:26:03;;;;;;;16.83;9.80;;;;;;;0.88;95.54;97548.25;5067537;28;20656;-58
2024/01/18 03:28:31;;;;;;;12.33;8.77;;;;;;;0.88;95.60;97551.63;5070031;28;20238;-57
2024/01/18 03:30:59;;;;;;;14.13;9.90;;;;;;;0.88;96.44;97561.78;5069947;28;20259;-56
2024/01/18 03:33:27;;;;;;;15.23;10.50;;;;;;;0.89;96.59;97565.16;5068694;28;20267;-57
2024/01/18 03:35:57;;;;;;;14.83;9.53;;;;;;;0.88;96.34;97566.00;5069873;28;20244;-56
2024/01/18 03:38:25;;;;;;;13.97;9.67;;;;;;;0.87;97.23;97562.63;5069937;28;20251;-58
2024/01/18 03:40:53;;;;;;;16.07;9.63;;;;;;;0.89;97.38;97566.00;5068326;28;20561;-57
2024/01/18 03:43:21;;;;;;;14.20;9.67;;;;;;;0.92;97.44;97568.50;5063569;28;20551;-57
2024/01/18 03:45:49;;;;;;;15.93;10.43;;;;;;;0.95;97.79;97580.28;5070362;28;20605;-57
2024/01/18 03:48:17;;;;;;;13.87;9.30;;;;;;;0.97;97.46;97583.66;5068842;28;20206;-57
2024/01/18 03:50:45;;;;;;;14.00;10.27;;;;;;;1.00;97.30;97577.72;5070063;28;20580;-60
2024/01/18 03:53:14;;;;;;;16.07;10.23;;;;;;;0.99;97.95;97584.44;5072611;28;20287;-59
2024/01/18 03:55:42;;;;;;;15.50;10.33;;;;;;;1.00;97.36;97590.38;5067956;28;20201;-56
2024/01/18 03:58:10;;;;;;;15.57;10.50;;;;;;;1.00;97.76;97585.31;5071997;28;20201;-58
2024/01/18 04:00:39;;;;;;;16.73;11.53;;;;;;;1.01;97.51;97595.44;5067771;28;20217;-57
2024/01/18 04:03:07;;;;;;;18.27;11.73;;;;;;;1.02;98.35;97594.56;5071862;28;20718;-57
2024/01/18 04:05:35;;;;;;;18.43;11.30;;;;;;;1.03;98.58;97597.94;5070252;28;20205;-57
2024/01/18 04:08:04;;;;;;;20.93;12.77;;;;;;;1.01;98.33;97597.13;5072661;28;20221;-58
2024/01/18 04:10:33;;;;;;;19.40;11.93;;;;;;;0.99;99.09;97589.53;5072881;28;20201;-58
2024/01/18 04:13:02;;;;;;;16.63;11.23;;;;;;;0.98;99.13;97589.56;5073333;28;20205;-58
2024/01/18 04:15:29;;;;;;;19.27;12.70;;;;;;;0.99;99.39;97591.22;5073716;28;20205;-58
2024/01/18 04:17:57;;;;;;;23.07;13.00;;;;;;;1.00;99.73;97590.38;5073356;28;20216;-57
2024/01/18 04:20:27;;;;;;;17.57;12.57;;;;;;;1.02;99.79;97599.63;5066108;28;20268;-57
2024/01/18 04:22:55;;;;;;;17.47;12.67;;;;;;;1.04;100.00;97604.69;5067538;28;20214;-58
2024/01/18 04:25:23;;;;;;;20.97;14.17;;;;;;;1.02;100.00;97597.09;5072135;28;20208;-57
2024/01/18 04:27:52;;;;;;;23.50;14.90;;;;;;;1.08;100.00;97601.25;5071528;28;20740;-58
2024/01/18 04:30:21;;;;;;;25.67;16.03;;;;;;;1.09;100.00;97602.94;5066380;28;20653;-57
2024/01/18 04:32:49;;;;;;;21.90;15.20;;;;;;;1.13;100.00;97609.63;5066432;28;20606;-56
2024/01/18 04:35:16;;;;;;;26.60;15.67;;;;;;;1.14;100.00;97611.31;5068536;28;20213;-58
2024/01/18 04:37:44;;;;;;;27.37;17.10;;;;;;;1.18;100.00;97620.56;5068517;28;20206;-56
2024/01/18 04:40:12;;;;;;;28.10;16.67;;;;;;;1.19;100.00;97614.63;5063124;28;20685;-55
2024/01/18 04:42:40;;;;;;;25.33;16.93;;;;;;;1.20;100.00;97616.31;5072635;28;20682;-58
2024/01/18 04:45:10;;;;;;;27.43;16.83;;;;;;;1.22;100.00;97614.59;5072442;28;20296;-58
2024/01/18 04:47:38;;;;;;;31.10;17.60;;;;;;;1.25;100.00;97618.78;5071717;28;20293;-59
2024/01/18 04:50:08;;;;;;;26.90;17.03;;;;;;;1.26;100.00;97628.09;5061281;28;20594;-58
2024/01/18 04:52:36;;;;;;;25.43;17.17;;;;;;;1.25;100.00;97624.69;5072377;28;20201;-58
2024/01/18 04:55:05;;;;;;;29.53;17.67;;;;;;;1.28;100.00;97629.72;5070506;28;20202;-57
2024/01/18 04:57:35;;;;;;;27.30;17.83;;;;;;;1.29;100.00;97631.41;5072232;28;20762;-55
2024/01/18 05:00:09;;;;;;;28.37;18.73;;;;;;;1.30;100.00;97633.09;5066798;28;20255;-58
2024/01/18 05:02:39;;;;;;;27.23;18.70;;;;;;;1.31;100.00;97634.75;5071834;28;20223;-56
2024/01/18 05:05:08;;;;;;;29.70;18.70;;;;;;;1.32;100.00;97635.59;5071385;28;20212;-56
2024/01/18 05:07:36;;;;;;;29.37;18.97;;;;;;;1.31;100.00;97634.75;5072005;28;20675;-57
2024/01/18 05:10:06;;;;;;;31.13;20.80;;;;;;;1.32;100.00;97633.88;5065879;28;20209;-58
2024/01/18 05:12:34;;;;;;;31.87;20.33;;;;;;;1.33;100.00;97642.38;5064776;28;20221;-58
2024/01/18 05:15:02;;;;;;;30.47;20.03;;;;;;;1.33;100.00;97643.19;5070477;28;20312;-59
2024/01/18 05:17:35;;;;;;;36.73;20.60;;;;;;;1.34;100.00;97639.78;5071993;28;20705;-57
2024/01/18 05:20:06;;;;;;;33.27;22.07;;;;;;;1.36;100.00;97640.63;5070112;28;20202;-57
2024/01/18 05:22:35;;;;;;;31.67;20.53;;;;;;;1.35;100.00;97640.63;5072014;28;20758;-58
2024/01/18 05:25:04;;;;;;;35.00;21.17;;;;;;;1.36;100.00;97645.69;5066142;28;20671;-58
2024/01/18 05:27:31;;;;;;;32.17;21.07;;;;;;;1.36;100.00;97642.28;5070571;28;20793;-57
2024/01/18 05:30:00;;;;;;;37.77;21.07;;;;;;;1.38;100.00;97650.75;5070389;28;20632;-58
2024/01/18 05:32:28;;;;;;;36.97;22.53;;;;;;;1.39;100.00;97660.84;5071573;28;20194;-57
2024/01/18 05:34:56;;;;;;;35.90;22.20;;;;;;;1.38;100.00;97655.81;5071552;28;20197;-58
2024/01/18 05:37:25;;;;;;;37.17;21.13;;;;;;;1.36;100.00;97662.59;5071405;28;20211;-57
2024/01/18 05:39:53;;;;;;;34.23;22.07;;;;;;;1.35;100.00;97666.81;5071574;28;20206;-58
2024/01/18 05:42:22;;;;;;;38.07;21.23;;;;;;;1.36;100.00;97667.66;5064255;28;20676;-57
2024/01/18 05:44:51;;;;;;;31.53;20.70;;;;;;;1.37;100.00;97669.38;5058116;28;20202;-57
2024/01/18 05:47:20;;;;;;;36.87;21.37;;;;;;;1.34;100.00;97675.31;5066327;28;20212;-57
2024/01/18 05:49:48;;;;;;;35.77;22.60;;;;;;;1.35;100.00;97684.59;5066855;28;20229;-57
2024/01/18 05:52:16;;;;;;;36.57;21.77;;;;;;;1.36;100.00;97685.41;5065827;28;20202;-57
2024/01/18 05:54:45;;;;;;;36.57;21.83;;;;;;;1.36;100.00;97688.81;5071405;28;20205;-58
2024/01/18 05:57:13;;;;;;;35.37;21.43;;;;;;;1.36;100.00;97695.56;5071255;28;20197;-57
2024/01/18 05:59:41;;;;;;;36.03;22.83;;;;;;;1.35;100.00;97697.28;5071101;28;20662;-55
2024/01/18 06:02:09;;;;;;;40.40;22.37;;;;;;;1.34;100.00;97710.00;5070744;28;20228;-58
2024/01/18 06:04:37;;;;;;;34.80;21.93;;;;;;;1.34;100.00;97708.28;5071278;28;20201;-57
2024/01/18 06:07:05;;;;;;;39.60;24.27;;;;;;;1.34;100.00;97720.13;5066571;28;20276;-57
2024/01/18 06:09:33;;;;;;;39.97;23.17;;;;;;;1.35;100.00;97716.72;5068228;28;20208;-57
2024/01/18 06:12:02;;;;;;;36.43;22.07;;;;;;;1.34;100.00;97720.97;5065097;28;20288;-56
2024/01/18 06:14:30;;;;;;;37.50;22.73;;;;;;;1.35;100.00;97732.78;5069126;28;20207;-61
2024/01/18 06:16:58;;;;;;;39.43;22.97;;;;;;;1.35;100.00;97727.72;5063903;28;20213;-56
2024/01/18 06:19:27;;;;;;;36.77;22.80;;;;;;;1.34;100.00;97731.13;5063565;28;20208;-59
2024/01/18 06:21:55;;;;;;;36.23;23.07;;;;;;;1.34;100.00;97730.28;5067346;28;20270;-57
2024/01/18 06:24:23;;;;;;;42.50;24.50;;;;;;;1.31;100.00;97737.91;5067836;28;20213;-59
2024/01/18 06:26:52;;;;;;;37.97;22.70;;;;;;;1.31;100.00;97733.69;5065555;28;20545;-59
2024/01/18 06:29:26;;;;;;;38.30;22.70;;;;;;;1.29;99.88;97739.63;5069514;28;20657;-58
2024/01/18 06:31:54;;;;;;;42.83;24.77;;;;;;;1.28;99.80;97748.09;5064271;28;20197;-60
2024/01/18 06:34:22;;;;;;;41.00;23.33;;;;;;;1.29;100.00;97747.22;5070695;28;20574;-59
2024/01/18 06:36:51;;;;;;;38.63;23.70;;;;;;;1.29;99.78;97755.72;5070328;28;20659;-59
2024/01/18 06:39:19;;;;;;;45.13;24.63;;;;;;;1.30;99.78;97754.00;5069189;28;20198;-59
2024/01/18 06:41:47;;;;;;;43.27;25.77;;;;;;;1.30;100.00;97757.38;5070731;28;20221;-59
2024/01/18 06:44:15;;;;;;;43.53;25.63;;;;;;;1.30;100.00;97765.00;5068302;28;20669;-60
2024/01/18 06:46:44;;;;;;;36.97;23.73;;;;;;;1.30;99.97;97759.91;5067706;28;20628;-59
2024/01/18 06:49:12;;;;;;;38.73;23.50;;;;;;;1.29;99.12;97753.19;5068030;28;20700;-60
2024/01/18 06:51:41;;;;;;;40.50;23.80;;;;;;;1.27;99.52;97751.50;5069108;28;20276;-59
2024/01/18 06:54:09;;;;;;;40.53;25.50;;;;;;;1.26;99.48;97743.06;5071824;28;20209;-64
2024/01/18 06:56:37;;;;;;;41.57;25.30;;;;;;;1.25;98.83;97759.13;5065802;28;20205;-59
2024/01/18 06:59:05;;;;;;;40.37;25.93;;;;;;;1.25;99.67;97754.03;5070010;28;20288;-59
2024/01/18 07:01:34;;;;;;;43.07;24.60;;;;;;;1.25;99.09;97761.66;5067082;28;20680;-58
2024/01/18 07:04:03;;;;;;;41.70;23.70;;;;;;;1.23;99.46;97771.00;5063223;28;20312;-59
2024/01/18 07:06:31;;;;;;;41.70;25.50;;;;;;;1.20;98.33;97763.41;5058609;28;20201;-59
2024/01/18 07:09:01;;;;;;;42.67;23.97;;;;;;;1.18;98.25;97770.22;5069528;28;20617;-59
2024/01/18 07:11:29;;;;;;;38.50;23.90;;;;;;;1.18;98.80;97773.59;5066354;28;20686;-59
2024/01/18 07:13:57;;;;;;;40.93;23.50;;;;;;;1.18;98.89;97777.81;5064950;28;20197;-59
2024/01/18 07:16:25;;;;;;;43.57;25.90;;;;;;;1.17;98.96;97781.19;5066871;28;20197;-59
2024/01/18 07:18:53;;;;;;;41.50;25.17;;;;;;;1.16;98.32;97795.56;5063871;28;20205;-57
2024/01/18 07:21:23;;;;;;;45.30;25.30;;;;;;;1.18;97.97;97800.66;5063668;28;20205;-60
2024/01/18 07:23:51;;;;;;;38.00;23.30;;;;;;;1.17;98.43;97793.88;5064433;28;20213;-60
2024/01/18 07:26:19;;;;;;;40.80;24.63;;;;;;;1.19;97.71;97797.25;5068030;28;20241;-61
2024/01/18 07:28:48;;;;;;;43.70;25.37;;;;;;;1.18;97.79;97796.41;5065285;28;20206;-60
2024/01/18 07:31:16;;;;;;;41.83;24.23;;;;;;;1.18;98.22;97798.13;5065181;28;20209;-60
2024/01/18 07:33:44;;;;;;;38.50;22.77;;;;;;;1.19;97.21;97807.38;5066661;28;20652;-60
2024/01/18 07:36:12;;;;;;;40.20;24.53;;;;;;;1.18;97.61;97810.78;5074341;28;20247;-59
2024/01/18 07:38:41;;;;;;;40.10;22.90;;;;;;;1.17;97.59;97798.94;5074431;28;20683;-59
2024/01/18 07:41:09;;;;;;;40.13;23.30;;;;;;;1.18;97.10;97818.41;5072288;28;20711;-60
2024/01/18 07:43:39;;;;;;;41.80;23.67;;;;;;;1.15;96.72;97815.88;5073578;28;20282;-59
2024/01/18 07:46:07;;;;;;;42.60;23.63;;;;;;;1.16;96.52;97832.78;5073237;28;20216;-59
2024/01/18 07:48:35;;;;;;;42.27;22.03;;;;;;;1.15;96.85;97833.66;5071891;28;20566;-60
2024/01/18 07:51:03;;;;;;;38.10;23.50;;;;;;;1.13;96.06;97840.41;5066870;28;20233;-61
2024/01/18 07:53:31;;;;;;;43.87;23.07;;;;;;;1.16;96.83;97842.91;5069971;28;20205;-61
2024/01/18 07:56:01;;;;;;;40.57;21.30;;;;;;;1.13;96.46;97848.03;5073103;28;20233;-60
2024/01/18 07:58:29;;;;;;;41.97;21.80;;;;;;;1.13;96.24;97850.56;5069935;28;20205;-62
2024/01/18 08:00:57;;;;;;;38.30;22.50;;;;;;;1.14;94.97;97854.75;5071619;28;20201;-58
2024/01/18 08:03:27;;;;;;;37.13;21.93;;;;;;;1.13;95.01;97853.94;5071274;28;20672;-60
2024/01/18 08:05:55;;;;;;;38.17;20.70;;;;;;;1.16;95.55;97846.28;5073414;28;20573;-61
2024/01/18 08:08:23;;;;;;;39.90;22.13;;;;;;;1.20;95.32;97854.72;5069559;28;20665;-61
2024/01/18 08:10:51;;;;;;;37.70;21.77;;;;;;;1.19;95.54;97843.75;5067189;28;20210;-59
2024/01/18 08:13:20;;;;;;;44.20;24.10;;;;;;;1.21;94.57;97846.25;5073364;28;20194;-58
2024/01/18 08:15:48;;;;;;;39.23;23.73;;;;;;;1.19;94.53;97858.97;5069875;28;20201;-60
2024/01/18 08:18:17;;;;;;;42.87;22.30;;;;;;;1.21;94.08;97861.47;5064850;28;20217;-61
2024/01/18 08:20:45;;;;;;;36.93;20.77;;;;;;;1.24;94.33;97858.06;5069616;28;20623;-60
2024/01/18 08:23:13;;;;;;;37.97;21.63;;;;;;;1.28;93.48;97860.56;5065981;28;20620;-59
2024/01/18 08:25:41;;;;;;;38.83;22.17;;;;;;;1.29;93.37;97867.34;5068270;28;20197;-59
2024/01/18 08:28:10;;;;;;;39.50;21.47;;;;;;;1.30;93.42;97873.25;5065854;28;20197;-58
2024/01/18 08:30:40;;;;;;;37.83;22.60;;;;;;;1.32;93.29;97876.59;5068617;28;20217;-60
2024/01/18 08:33:09;;;;;;;44.30;25.03;;;;;;;1.33;93.75;97879.13;5066377;28;20292;-59
2024/01/18 08:35:37;;;;;;;38.87;23.33;;;;;;;1.35;93.51;97890.09;5068147;28;20198;-59
2024/01/18 08:38:05;;;;;;;39.37;22.37;;;;;;;1.32;92.49;97892.63;5069946;28;20201;-60
2024/01/18 08:40:33;;;;;;;39.27;22.73;;;;;;;1.29;92.41;97895.22;5061213;28;20557;-59
2024/01/18 08:43:02;;;;;;;37.80;21.87;;;;;;;1.26;92.30;97889.34;5067142;28;20217;-59
2024/01/18 08:45:30;;;;;;;40.47;21.30;;;;;;;1.25;92.62;97906.22;5072158;28;20212;-60
2024/01/18 08:48:00;;;;;;;39.17;21.50;;;;;;;1.24;93.45;97912.16;5072864;28;20197;-60
2024/01/18 08:50:28;;;;;;;40.37;22.40;;;;;;;1.24;92.66;97911.34;5070361;28;20668;-60
2024/01/18 08:52:56;;;;;;;41.47;23.43;;;;;;;1.26;92.68;97922.31;5069007;28;20202;-60
2024/01/18 08:55:24;;;;;;;42.70;22.60;;;;;;;1.26;92.81;97924.88;5067568;28;20713;-61
2024/01/18 08:57:52;;;;;;;40.80;23.50;;;;;;;1.20;92.02;97930.81;5060531;28;20293;-60
2024/01/18 09:00:21;;;;;;;43.27;22.20;;;;;;;1.17;92.79;97925.75;5064959;28;20205;-61
2024/01/18 09:02:49;;;;;;;42.47;22.23;;;;;;;1.21;92.55;97927.41;5071266;28;20252;-59
2024/01/18 09:05:20;;;;;;;44.30;23.73;;;;;;;1.18;92.11;97942.69;5063538;28;20724;-62
2024/01/18 09:07:48;;;;;;;42.03;23.60;;;;;;;1.16;92.43;97940.13;5062872;28;20306;-60
2024/01/18 09:10:16;;;;;;;42.03;23.67;;;;;;;1.17;92.34;97940.97;5070693;28;20240;-59
2024/01/18 09:12:45;;;;;;;44.97;24.47;;;;;;;1.17;92.30;97946.03;5065654;28;20240;-57
2024/01/18 09:15:14;;;;;;;43.20;23.57;;;;;;;1.19;92.80;97949.44;5069104;28;20720;-61
2024/01/18 09:17:42;;;;;;;44.73;23.67;;;;;;;1.16;93.32;97945.22;5061224;28;20267;-58
2024/01/18 09:20:10;;;;;;;42.87;23.73;;;;;;;1.08;92.37;97952.03;5060875;28;20243;-60
2024/01/18 09:22:40;;;;;;;44.90;24.90;;;;;;;1.04;92.92;97954.63;5070448;28;20395;-57
2024/01/18 09:25:11;;;;;;;51.00;24.10;;;;;;;1.04;92.96;97959.69;5063547;28;20202;-59
2024/01/18 09:27:39;;;;;;;40.50;22.30;;;;;;;0.94;93.78;97959.75;5067907;28;20229;-58
2024/01/18 09:30:09;;;;;;;44.40;22.97;;;;;;;0.90;93.71;97962.31;5067449;28;20205;-59
2024/01/18 09:32:39;;;;;;;43.53;23.63;;;;;;;0.87;93.86;97958.09;5069644;28;20299;-58
2024/01/18 09:35:08;;;;;;;50.60;26.03;;;;;;;0.85;93.88;97957.28;5069493;28;20193;-59
2024/01/18 09:37:37;;;;;;;41.00;22.93;;;;;;;0.87;93.92;97957.25;5063508;28;20231;-57
2024/01/18 09:40:11;;;;;;;48.03;24.00;;;;;;;0.91;94.54;97948.78;5060049;28;20213;-57
2024/01/18 09:42:46;;;;;;;45.67;23.80;;;;;;;0.95;93.40;97958.88;5068802;28;20193;-58
2024/01/18 09:45:15;;;;;;;45.87;23.30;;;;;;;1.03;93.86;97960.53;5069118;28;20201;-60
2024/01/18 09:47:43;;;;;;;43.50;23.93;;;;;;;1.10;93.39;97965.53;5065639;28;20698;-60
2024/01/18 09:50:12;;;;;;;43.13;21.97;;;;;;;1.14;93.61;97967.22;5060463;28;20232;-59
2024/01/18 09:52:40;;;;;;;44.93;23.73;;;;;;;1.16;92.92;97962.97;5069663;28;20198;-60
2024/01/18 09:55:09;;;;;;;47.47;24.10;;;;;;;1.18;92.74;97966.34;5063133;28;20217;-61
2024/01/18 09:57:41;;;;;;;44.17;24.40;;;;;;;1.19;92.15;97964.66;5061273;28;20206;-61
2024/01/18 10:00:15;;;;;;;42.17;23.53;;;;;;;1.20;91.50;97962.09;5068583;28;20284;-59
2024/01/18 10:02:43;;;;;;;43.13;22.53;;;;;;;1.25;92.00;97951.91;5060839;28;20198;-60
2024/01/18 10:05:13;;;;;;;43.40;23.67;;;;;;;1.36;92.19;97955.22;5060661;28;20221;-60
2024/01/18 10:07:41;;;;;;;42.30;24.00;;;;;;;1.45;92.16;97952.59;5063823;28;20652;-59
2024/01/18 10:10:14;;;;;;;42.97;24.03;;;;;;;1.50;91.11;97952.53;5059408;28;20661;-59
2024/01/18 10:12:42;;;;;;;38.67;22.60;;;;;;;1.60;91.06;97955.84;5061566;28;20206;-65
2024/01/18 10:15:11;;;;;;;43.63;23.53;;;;;;;1.68;90.35;97957.44;5067318;28;20201;-59
2024/01/18 10:17:39;;;;;;;40.70;22.97;;;;;;;1.76;90.59;97957.34;5062945;28;20553;-60
2024/01/18 10:20:13;;;;;;;42.83;22.27;;;;;;;1.86;89.03;97958.13;5069784;28;20233;-58
2024/01/18 10:22:43;;;;;;;40.57;22.73;;;;;;;1.85;88.32;97962.34;5065883;28;20254;-59
2024/01/18 10:25:14;;;;;;;37.40;21.33;;;;;;;1.79;88.04;97951.41;5070035;28;20217;-57
2024/01/18 10:27:43;;;;;;;40.53;21.87;;;;;;;1.80;88.56;97950.56;5067702;28;20632;-58
2024/01/18 10:30:12;;;;;;;37.37;21.83;;;;;;;1.83;87.20;97958.13;5064255;28;20201;-61
2024/01/18 10:32:41;;;;;;;34.67;20.13;;;;;;;1.79;86.57;97946.34;5066090;28;20631;-59
2024/01/18 10:35:20;;;;;;;36.47;21.47;;;;;;;1.78;86.52;97950.59;5066931;28;20285;-60
2024/01/18 10:37:48;;;;;;;40.23;21.90;;;;;;;1.77;85.84;97953.97;5069429;28;20326;-59
2024/01/18 10:40:21;;;;;;;43.97;24.33;;;;;;;1.78;85.93;97970.06;5069927;28;20208;-58
2024/01/18 10:42:49;;;;;;;38.10;22.43;;;;;;;1.77;85.94;97984.44;5070214;28;20208;-59
2024/01/18 10:45:17;;;;;;;37.73;22.03;;;;;;;1.73;85.94;97992.09;5070883;28;20247;-60
2024/01/18 10:47:45;;;;;;;38.93;21.70;;;;;;;1.65;85.96;98004.84;5070645;28;20207;-59
2024/01/18 10:50:13;;;;;;;38.63;21.97;;;;;;;1.59;85.61;98021.00;5069874;28;20776;-59
2024/01/18 10:52:42;;;;;;;39.10;22.77;;;;;;;1.47;85.48;98030.38;5071090;28;20278;-61
2024/01/18 10:55:12;;;;;;;36.23;21.90;;;;;;;1.37;85.90;98038.06;5070274;28;20258;-60
2024/01/18 10:57:41;;;;;;;34.83;21.17;;;;;;;1.31;86.34;98040.66;5071032;28;20712;-56
2024/01/18 11:00:15;;;;;;;36.73;21.33;;;;;;;1.26;86.37;98039.84;5070798;28;20652;-57
2024/01/18 11:02:44;;;;;;;38.97;21.43;;;;;;;1.27;87.30;98045.75;5059951;28;20206;-55
2024/01/18 11:05:14;;;;;;;39.10;22.87;;;;;;;1.25;87.28;98045.75;5062301;28;20255;-59
2024/01/18 11:07:42;;;;;;;36.63;21.83;;;;;;;1.24;86.27;98049.16;5073150;28;20201;-64
2024/01/18 11:10:11;;;;;;;37.97;21.87;;;;;;;1.15;86.69;98049.22;5067391;28;20212;-60
2024/01/18 11:12:42;;;;;;;39.87;22.87;;;;;;;1.12;86.81;98049.25;5071424;28;20607;-60
2024/01/18 11:15:13;;;;;;;41.33;22.53;;;;;;;1.10;86.69;98048.38;5077529;28;20698;-59
2024/01/18 11:17:46;;;;;;;42.70;22.83;;;;;;;1.11;86.55;98050.94;5072021;28;20212;-60
2024/01/18 11:20:15;;;;;;;41.83;22.50;;;;;;;1.12;86.01;98059.38;5073509;28;20250;-60
2024/01/18 11:22:43;;;;;;;41.13;24.00;;;;;;;1.06;86.47;98050.09;5072483;28;20687;-60
2024/01/18 11:25:13;;;;;;;39.40;23.30;;;;;;;1.09;86.94;98044.19;5073929;28;20217;-61
2024/01/18 11:27:43;;;;;;;42.60;24.13;;;;;;;1.04;85.38;98050.97;5072542;28;20201;-60
2024/01/18 11:30:13;;;;;;;42.80;24.47;;;;;;;0.94;86.39;98051.00;5072710;28;20205;-60